createdAt,value
2023-04-10T00:00:20.907Z,101860.59
2023-04-10T00:02:56.637Z,101852.31
2023-04-10T00:05:23.327Z,101842.44
2023-04-10T00:07:49.774Z,101850.28
2023-04-10T00:10:16.797Z,101847.88
2023-04-10T00:12:43.279Z,101841.81
2023-04-10T00:15:10.203Z,101845.66
2023-04-10T00:17:36.821Z,101829.91
2023-04-10T00:20:05.010Z,101825.34
2023-04-10T00:22:31.493Z,101827.16
2023-04-10T00:24:57.940Z,101819.94
2023-04-10T00:27:24.404Z,101818.69
2023-04-10T00:29:50.950Z,101812.66
2023-04-10T00:32:17.548Z,101814.59
2023-04-10T00:34:44.100Z,101791.13
2023-04-10T00:37:10.638Z,101804.63
2023-04-10T00:39:37.070Z,101809.38
2023-04-10T00:42:04.123Z,101797.06
2023-04-10T00:44:30.827Z,101796.63
2023-04-10T00:46:57.305Z,101799.66
2023-04-10T00:49:23.993Z,101804.25
2023-04-10T00:51:50.641Z,101793.91
2023-04-10T00:54:17.225Z,101796.25
2023-04-10T00:56:44.807Z,101789.28
2023-04-10T00:59:11.360Z,101795.63
2023-04-10T01:01:38.059Z,101782.44
2023-04-10T01:04:05.164Z,101787.59
2023-04-10T01:06:58.195Z,101787.06
2023-04-10T01:09:24.559Z,101794.19
2023-04-10T01:12:00.440Z,101798.44
2023-04-10T01:14:50.894Z,101795.59
2023-04-10T01:17:43.829Z,101793.91
2023-04-10T01:20:13.104Z,101789.19
2023-04-10T01:23:08.621Z,101792.88
2023-04-10T01:25:42.191Z,101783.50
2023-04-10T01:28:46.210Z,101784.56
2023-04-10T01:31:18.460Z,101773.44
2023-04-10T01:33:50.862Z,101773.78
2023-04-10T01:36:24.645Z,101762.41
2023-04-10T01:38:53.498Z,101757.44
2023-04-10T01:41:22.074Z,101755.84
2023-04-10T01:43:51.944Z,101753.09
2023-04-10T01:46:21.684Z,101750.97
2023-04-10T01:48:49.977Z,101742.34
2023-04-10T01:51:17.892Z,101750.00
2023-04-10T01:53:47.628Z,101740.84
2023-04-10T01:56:15.541Z,101746.34
2023-04-10T01:58:42.535Z,101743.31
2023-04-10T02:01:19.214Z,101735.78
2023-04-10T02:03:53.619Z,101746.81
2023-04-10T02:06:35.739Z,101743.59
2023-04-10T02:09:02.177Z,101745.66
2023-04-10T02:11:38.381Z,101740.13
2023-04-10T02:14:11.024Z,101743.31
2023-04-10T02:16:39.140Z,101742.97
2023-04-10T02:19:06.829Z,101738.25
2023-04-10T02:21:34.483Z,101736.84
2023-04-10T02:24:01.118Z,101738.88
2023-04-10T02:26:27.600Z,101739.97
2023-04-10T02:28:54.043Z,101731.16
2023-04-10T02:31:20.671Z,101726.50
2023-04-10T02:33:47.501Z,101721.88
2023-04-10T02:36:14.264Z,101728.72
2023-04-10T02:38:40.871Z,101718.72
2023-04-10T02:41:07.347Z,101719.03
2023-04-10T02:43:33.862Z,101726.09
2023-04-10T02:46:00.337Z,101726.25
2023-04-10T02:48:26.823Z,101722.81
2023-04-10T02:50:57.898Z,101723.69
2023-04-10T02:53:25.964Z,101717.59
2023-04-10T02:55:54.123Z,101724.56
2023-04-10T02:58:21.995Z,101721.94
2023-04-10T03:00:50.775Z,101715.44
2023-04-10T03:03:19.653Z,101720.75
2023-04-10T03:05:49.881Z,101720.81
2023-04-10T03:08:17.439Z,101715.78
2023-04-10T03:10:48.699Z,101715.53
2023-04-10T03:13:15.731Z,101705.41
2023-04-10T03:15:42.399Z,101707.84
2023-04-10T03:18:11.908Z,101700.00
2023-04-10T03:20:38.644Z,101709.66
2023-04-10T03:23:08.241Z,101697.91
2023-04-10T03:25:35.454Z,101697.91
2023-04-10T03:28:02.045Z,101694.13
2023-04-10T03:30:28.719Z,101683.41
2023-04-10T03:32:55.414Z,101683.78
2023-04-10T03:35:22.214Z,101683.03
2023-04-10T03:37:48.679Z,101689.44
2023-04-10T03:40:15.253Z,101683.94
2023-04-10T03:42:41.756Z,101679.22
2023-04-10T03:45:08.722Z,101684.75
2023-04-10T03:47:35.386Z,101683.66
2023-04-10T03:50:02.181Z,101675.75
2023-04-10T03:52:28.688Z,101662.69
2023-04-10T03:54:55.489Z,101675.34
2023-04-10T03:57:22.027Z,101672.22
2023-04-10T03:59:48.454Z,101667.88
2023-04-10T04:02:15.362Z,101672.56
2023-04-10T04:04:42.045Z,101669.44
2023-04-10T04:07:09.032Z,101671.09
2023-04-10T04:09:35.899Z,101659.22
2023-04-10T04:12:02.381Z,101662.41
2023-04-10T04:14:28.888Z,101671.94
2023-04-10T04:16:55.496Z,101660.06
2023-04-10T04:19:22.020Z,101658.88
2023-04-10T04:21:48.566Z,101664.41
2023-04-10T04:24:15.299Z,101655.34
2023-04-10T04:26:41.800Z,101655.31
2023-04-10T04:29:08.257Z,101654.63
2023-04-10T04:31:34.876Z,101647.59
2023-04-10T04:34:01.527Z,101649.56
2023-04-10T04:36:28.205Z,101659.13
2023-04-10T04:38:55.272Z,101655.56
2023-04-10T04:41:22.103Z,101654.41
2023-04-10T04:43:49.459Z,101650.78
2023-04-10T04:46:16.046Z,101651.63
2023-04-10T04:48:42.585Z,101646.41
2023-04-10T04:51:09.149Z,101656.63
2023-04-10T04:53:35.983Z,101652.19
2023-04-10T04:56:03.130Z,101657.75
2023-04-10T04:58:29.646Z,101654.22
2023-04-10T05:00:56.118Z,101656.09
2023-04-10T05:03:23.032Z,101645.00
2023-04-10T05:05:49.804Z,101642.16
2023-04-10T05:08:16.361Z,101649.22
2023-04-10T05:10:42.831Z,101645.91
2023-04-10T05:13:09.347Z,101638.25
2023-04-10T05:15:36.084Z,101644.13
2023-04-10T05:18:02.728Z,101646.66
2023-04-10T05:20:29.281Z,101641.06
2023-04-10T05:22:55.773Z,101642.97
2023-04-10T05:25:22.398Z,101641.28
2023-04-10T05:27:48.880Z,101638.69
2023-04-10T05:30:15.644Z,101648.41
2023-04-10T05:32:42.216Z,101644.72
2023-04-10T05:35:09.109Z,101657.97
2023-04-10T05:37:35.718Z,101649.50
2023-04-10T05:40:02.212Z,101655.81
2023-04-10T05:42:28.720Z,101659.69
2023-04-10T05:44:55.232Z,101656.84
2023-04-10T05:47:21.725Z,101644.16
2023-04-10T05:49:48.259Z,101638.22
2023-04-10T05:52:14.746Z,101650.53
2023-04-10T05:54:41.225Z,101642.75
2023-04-10T05:57:07.702Z,101645.19
2023-04-10T05:59:34.181Z,101643.69
2023-04-10T06:02:01.007Z,101634.72
2023-04-10T06:04:27.692Z,101635.19
2023-04-10T06:06:54.307Z,101631.34
2023-04-10T06:09:20.897Z,101640.56
2023-04-10T06:11:47.368Z,101638.66
2023-04-10T06:14:13.813Z,101641.22
2023-04-10T06:16:40.365Z,101635.00
2023-04-10T06:19:06.833Z,101637.56
2023-04-10T06:21:33.350Z,101623.06
2023-04-10T06:23:59.887Z,101628.41
2023-04-10T06:26:26.516Z,101630.16
2023-04-10T06:28:53.263Z,101617.59
2023-04-10T06:31:23.944Z,101620.91
2023-04-10T06:33:51.062Z,101619.47
2023-04-10T06:36:17.848Z,101611.69
2023-04-10T06:38:44.351Z,101625.25
2023-04-10T06:41:11.509Z,101610.44
2023-04-10T06:43:39.355Z,101618.91
2023-04-10T06:46:06.296Z,101615.91
2023-04-10T06:48:33.585Z,101622.41
2023-04-10T06:51:02.890Z,101622.22
2023-04-10T06:53:29.737Z,101631.44
2023-04-10T06:55:56.937Z,101624.44
2023-04-10T06:58:24.472Z,101617.09
2023-04-10T07:00:51.157Z,101617.22
2023-04-10T07:03:17.813Z,101620.56
2023-04-10T07:05:44.373Z,101618.22
2023-04-10T07:08:11.229Z,101603.28
2023-04-10T07:10:37.866Z,101605.72
2023-04-10T07:13:04.558Z,101604.22
2023-04-10T07:15:31.034Z,101600.25
2023-04-10T07:17:57.556Z,101595.50
2023-04-10T07:20:24.160Z,101579.63
2023-04-10T07:22:50.728Z,101581.22
2023-04-10T07:25:18.459Z,101577.63
2023-04-10T07:27:45.011Z,101577.22
2023-04-10T07:30:13.517Z,101583.59
2023-04-10T07:32:42.200Z,101569.69
2023-04-10T07:35:09.464Z,101570.88
2023-04-10T07:37:36.032Z,101566.09
2023-04-10T07:40:03.120Z,101570.84
2023-04-10T07:42:30.394Z,101574.03
2023-04-10T07:44:57.238Z,101562.88
2023-04-10T07:47:23.811Z,101556.50
2023-04-10T07:49:50.502Z,101554.09
2023-04-10T07:52:16.986Z,101552.09
2023-04-10T07:54:43.463Z,101537.44
2023-04-10T07:57:09.974Z,101547.75
2023-04-10T07:59:36.545Z,101528.59
2023-04-10T08:02:03.101Z,101528.19
2023-04-10T08:04:31.184Z,101529.00
2023-04-10T08:06:57.931Z,101525.00
2023-04-10T08:09:24.399Z,101515.03
2023-04-10T08:11:51.084Z,101522.97
2023-04-10T08:14:18.555Z,101516.59
2023-04-10T08:16:45.289Z,101510.16
2023-04-10T08:19:11.885Z,101509.28
2023-04-10T08:21:38.527Z,101492.50
2023-04-10T08:24:05.447Z,101499.56
2023-04-10T08:26:31.937Z,101499.47
2023-04-10T08:29:00.757Z,101495.81
2023-04-10T08:31:29.030Z,101490.59
2023-04-10T08:33:56.065Z,101496.84
2023-04-10T08:36:22.808Z,101486.44
2023-04-10T08:38:49.549Z,101492.69
2023-04-10T08:41:18.686Z,101468.66
2023-04-10T08:43:46.386Z,101475.72
2023-04-10T08:46:14.737Z,101465.69
2023-04-10T08:48:59.992Z,101459.53
2023-04-10T08:51:32.216Z,101464.09
2023-04-10T08:54:10.781Z,101455.28
2023-04-10T08:56:40.239Z,101452.03
2023-04-10T08:59:07.802Z,101450.84
2023-04-10T09:01:35.857Z,101438.00
2023-04-10T09:04:02.599Z,101433.84
2023-04-10T09:06:29.268Z,101433.53
2023-04-10T09:08:55.946Z,101435.69
2023-04-10T09:11:22.468Z,101444.84
2023-04-10T09:13:48.912Z,101430.69
2023-04-10T09:16:15.600Z,101439.22
2023-04-10T09:18:46.189Z,101420.38
2023-04-10T09:21:19.490Z,101435.84
2023-04-10T09:23:47.434Z,101411.84
2023-04-10T09:26:30.360Z,101430.47
2023-04-10T09:28:59.152Z,101426.06
2023-04-10T09:31:36.846Z,101425.16
2023-04-10T09:34:12.490Z,101422.28
2023-04-10T09:36:41.694Z,101417.63
2023-04-10T09:39:10.310Z,101431.31
2023-04-10T09:41:56.040Z,101431.63
2023-04-10T09:44:35.216Z,101433.59
2023-04-10T09:47:13.924Z,101428.94
2023-04-10T09:49:52.781Z,101421.50
2023-04-10T09:52:32.316Z,101423.78
2023-04-10T09:55:01.062Z,101414.44
2023-04-10T09:57:30.962Z,101413.31
2023-04-10T10:00:00.902Z,101417.19
2023-04-10T10:02:31.672Z,101412.97
2023-04-10T10:05:02.369Z,101426.66
2023-04-10T10:07:29.757Z,101404.44
2023-04-10T10:09:57.899Z,101397.44
2023-04-10T10:12:29.695Z,101402.13
2023-04-10T10:15:11.632Z,101390.75
2023-04-10T10:17:45.576Z,101412.19
2023-04-10T10:20:15.864Z,101382.72
2023-04-10T10:22:42.815Z,101386.06
2023-04-10T10:25:10.047Z,101379.09
2023-04-10T10:27:38.672Z,101366.63
2023-04-10T10:30:20.247Z,101352.41
2023-04-10T10:32:54.733Z,101347.66
2023-04-10T10:35:22.983Z,101351.91
2023-04-10T10:37:50.571Z,101351.97
2023-04-10T10:40:27.291Z,101339.97
2023-04-10T10:42:56.914Z,101341.00
2023-04-10T10:45:51.051Z,101325.97
2023-04-10T10:48:17.721Z,101323.22
2023-04-10T10:50:59.181Z,101311.53
2023-04-10T10:53:40.589Z,101305.66
2023-04-10T10:56:19.394Z,101298.91
2023-04-10T10:58:50.964Z,101284.81
2023-04-10T11:01:18.246Z,101288.09
2023-04-10T11:03:45.503Z,101283.78
2023-04-10T11:06:17.082Z,101275.91
2023-04-10T11:08:48.018Z,101278.63
2023-04-10T11:11:25.446Z,101271.22
2023-04-10T11:14:00.680Z,101260.00
2023-04-10T11:16:31.455Z,101255.16
2023-04-10T11:19:12.974Z,101259.41
2023-04-10T11:22:08.023Z,101244.75
2023-04-10T11:24:59.990Z,101259.47
2023-04-10T11:27:50.053Z,101233.97
2023-04-10T11:30:27.206Z,101219.06
2023-04-10T11:32:55.266Z,101206.84
2023-04-10T11:35:22.121Z,101212.13
2023-04-10T11:37:48.634Z,101204.28
2023-04-10T11:40:16.532Z,101203.91
2023-04-10T11:42:43.421Z,101204.78
2023-04-10T11:45:27.215Z,101203.66
2023-04-10T11:47:54.983Z,101191.31
2023-04-10T11:50:21.715Z,101196.81
2023-04-10T11:52:51.652Z,101193.03
2023-04-10T11:55:19.062Z,101188.66
2023-04-10T11:57:45.760Z,101177.28
2023-04-10T12:00:12.847Z,101176.72
2023-04-10T12:02:55.032Z,101170.22
2023-04-10T12:05:21.817Z,101168.81
2023-04-10T12:07:50.379Z,101170.53
2023-04-10T12:10:16.945Z,101166.66
2023-04-10T12:12:43.515Z,101162.75
2023-04-10T12:15:27.268Z,101159.53
2023-04-10T12:17:55.128Z,101151.66
2023-04-10T12:20:26.432Z,101149.81
2023-04-10T12:22:56.303Z,101135.03
2023-04-10T12:25:22.992Z,101148.09
2023-04-10T12:27:53.108Z,101140.66
2023-04-10T12:30:19.689Z,101129.34
2023-04-10T12:32:53.429Z,101128.84
2023-04-10T12:35:20.385Z,101126.34
2023-04-10T12:37:55.703Z,101117.06
2023-04-10T12:40:26.554Z,101111.78
2023-04-10T12:42:55.835Z,101111.34
2023-04-10T12:45:40.975Z,101100.59
2023-04-10T12:48:07.506Z,101120.50
2023-04-10T12:50:33.999Z,101102.69
2023-04-10T12:53:11.606Z,101101.31
2023-04-10T12:55:38.695Z,101106.09
2023-04-10T12:58:20.611Z,101103.28
2023-04-10T13:00:48.257Z,101101.72
2023-04-10T13:03:14.940Z,101086.59
2023-04-10T13:05:41.559Z,101097.50
2023-04-10T13:08:08.125Z,101086.78
2023-04-10T13:10:37.187Z,101083.06
2023-04-10T13:13:04.825Z,101068.84
2023-04-10T13:15:34.510Z,101055.50
2023-04-10T13:18:01.968Z,101056.53
2023-04-10T13:20:29.823Z,101051.78
2023-04-10T13:22:56.250Z,101050.41
2023-04-10T13:25:23.103Z,101042.72
2023-04-10T13:27:49.589Z,101048.88
2023-04-10T13:30:16.193Z,101038.63
2023-04-10T13:32:42.790Z,101037.75
2023-04-10T13:35:09.655Z,101030.91
2023-04-10T13:37:36.689Z,101047.19
2023-04-10T13:40:04.178Z,101016.72
2023-04-10T13:42:31.002Z,101011.34
2023-04-10T13:44:57.461Z,101002.63
2023-04-10T13:47:23.914Z,101007.50
2023-04-10T13:49:50.444Z,100992.66
2023-04-10T13:52:16.928Z,100974.69
2023-04-10T13:54:43.471Z,100981.28
2023-04-10T13:57:09.988Z,100973.53
2023-04-10T13:59:36.456Z,100969.16
2023-04-10T14:02:02.971Z,100959.84
2023-04-10T14:04:29.446Z,100961.09
2023-04-10T14:06:58.697Z,100945.06
2023-04-10T14:09:25.345Z,100946.25
2023-04-10T14:11:51.835Z,100945.06
2023-04-10T14:14:18.482Z,100949.44
2023-04-10T14:16:45.014Z,100933.28
2023-04-10T14:19:11.577Z,100922.91
2023-04-10T14:21:40.433Z,100917.59
2023-04-10T14:24:06.917Z,100910.50
2023-04-10T14:26:33.403Z,100906.94
2023-04-10T14:28:59.923Z,100909.78
2023-04-10T14:31:28.408Z,100898.97
2023-04-10T14:33:56.133Z,100896.63
2023-04-10T14:36:22.916Z,100894.41
2023-04-10T14:38:49.404Z,100878.63
2023-04-10T14:41:16.380Z,100871.16
2023-04-10T14:43:44.346Z,100862.75
2023-04-10T14:46:12.535Z,100856.63
2023-04-10T14:48:39.268Z,100868.16
2023-04-10T14:51:12.662Z,100851.53
2023-04-10T15:59:35.962Z,100736.00
2023-04-10T16:02:02.942Z,100737.66
2023-04-10T16:04:30.628Z,100738.63
2023-04-10T16:06:57.266Z,100739.50
2023-04-10T16:09:26.390Z,100718.28
2023-04-10T16:11:54.366Z,100736.50
2023-04-10T16:14:21.020Z,100732.25
2023-04-10T16:16:47.551Z,100738.34
2023-04-10T16:19:14.110Z,100745.06
2023-04-10T16:21:40.640Z,100760.94
2023-04-10T16:24:07.368Z,100734.00
2023-04-10T16:26:33.854Z,100739.69
2023-04-10T16:29:00.319Z,100741.22
2023-04-10T16:31:26.889Z,100726.94
2023-04-10T16:33:57.257Z,100722.75
2023-04-10T16:36:23.713Z,100719.25
2023-04-10T16:38:50.419Z,100719.66
2023-04-10T16:41:20.894Z,100712.19
2023-04-10T16:43:47.690Z,100729.19
2023-04-10T16:46:14.280Z,100726.00
2023-04-10T16:48:40.846Z,100724.00
2023-04-10T16:51:14.541Z,100698.72
2023-04-10T16:53:41.080Z,100712.97
2023-04-10T16:56:07.820Z,100708.47
2023-04-10T16:58:35.997Z,100702.56
2023-04-10T17:01:20.665Z,100700.44
2023-04-10T17:03:48.281Z,100718.16
2023-04-10T17:06:21.352Z,100691.94
2023-04-10T17:08:47.830Z,100689.38
2023-04-10T17:11:14.432Z,100668.31
2023-04-10T17:13:41.412Z,100652.38
2023-04-10T17:16:09.217Z,100641.00
2023-04-10T17:18:35.741Z,100641.19
2023-04-10T17:21:02.234Z,100635.38
2023-04-10T17:23:29.293Z,100624.66
2023-04-10T17:25:55.757Z,100619.09
2023-04-10T17:28:22.278Z,100627.84
2023-04-10T17:30:48.779Z,100627.22
2023-04-10T17:33:15.437Z,100630.19
2023-04-10T17:35:42.257Z,100635.69
2023-04-10T17:38:08.934Z,100629.28
2023-04-10T17:40:37.383Z,100642.44
2023-04-10T17:43:04.218Z,100636.81
2023-04-10T17:45:30.698Z,100640.03
2023-04-10T17:47:57.236Z,100637.94
2023-04-10T17:50:23.838Z,100621.91
2023-04-10T17:52:50.426Z,100611.19
2023-04-10T17:55:21.199Z,100607.44
2023-04-10T17:57:48.907Z,100621.38
2023-04-10T18:00:16.932Z,100627.13
2023-04-10T18:02:48.580Z,100641.38
2023-04-10T18:05:15.360Z,100636.28
2023-04-10T18:07:41.882Z,100647.59
2023-04-10T18:10:11.180Z,100636.22
2023-04-10T18:12:37.990Z,100638.06
2023-04-10T18:15:05.211Z,100646.72
2023-04-10T18:17:31.864Z,100650.38
2023-04-10T18:19:58.392Z,100664.81
2023-04-10T18:22:24.862Z,100671.34
2023-04-10T18:24:51.384Z,100668.44
2023-04-10T18:27:17.863Z,100673.59
2023-04-10T18:29:45.532Z,100684.19
2023-04-10T18:32:12.329Z,100696.06
2023-04-10T18:34:39.410Z,100685.16
2023-04-10T18:37:07.488Z,100686.34
2023-04-10T18:39:38.084Z,100673.34
2023-04-10T18:42:07.370Z,100678.19
2023-04-10T18:44:34.822Z,100676.84
2023-04-10T18:47:04.296Z,100670.59
2023-04-10T18:49:31.670Z,100656.00
2023-04-10T18:51:58.140Z,100658.19
2023-04-10T18:54:26.983Z,100658.59
2023-04-10T18:56:53.466Z,100669.06
2023-04-10T18:59:20.111Z,100658.22
2023-04-10T19:01:46.626Z,100654.34
2023-04-10T19:04:13.254Z,100658.47
2023-04-10T19:06:41.040Z,100654.94
2023-04-10T19:09:08.725Z,100652.94
2023-04-10T19:11:35.267Z,100644.84
2023-04-10T19:14:01.816Z,100645.91
2023-04-10T19:16:28.437Z,100642.72
2023-04-10T19:18:55.363Z,100634.31
2023-04-10T19:21:22.289Z,100642.59
2023-04-10T19:23:49.306Z,100645.19
2023-04-10T19:26:16.029Z,100655.91
2023-04-10T19:28:42.545Z,100654.25
2023-04-10T19:31:09.138Z,100687.56
2023-04-10T19:33:35.697Z,100698.03
2023-04-10T19:36:02.258Z,100706.69
2023-04-10T19:38:32.812Z,100689.59
2023-04-10T19:40:59.333Z,100689.03
2023-04-10T19:43:25.909Z,100671.63
2023-04-10T19:45:53.328Z,100669.75
2023-04-10T19:48:19.852Z,100684.88
2023-04-10T19:50:46.481Z,100692.75
2023-04-10T19:53:15.528Z,100706.38
2023-04-10T19:55:44.316Z,100706.78
2023-04-10T19:58:20.707Z,100699.22
2023-04-10T20:01:04.934Z,100699.69
2023-04-10T20:03:32.729Z,100707.63
2023-04-10T20:06:00.691Z,100701.72
2023-04-10T20:08:27.372Z,100698.91
2023-04-10T20:10:54.424Z,100694.97
2023-04-10T20:13:22.332Z,100684.44
2023-04-10T20:15:49.582Z,100667.00
2023-04-10T20:18:16.677Z,100657.38
2023-04-10T20:20:44.280Z,100654.38
2023-04-10T20:23:11.939Z,100656.06
2023-04-10T20:25:38.840Z,100658.84
2023-04-10T20:28:05.297Z,100653.75
2023-04-10T20:30:31.777Z,100632.75
2023-04-10T20:32:58.269Z,100647.00
2023-04-10T20:35:25.255Z,100649.50
2023-04-10T20:37:51.823Z,100661.34
2023-04-10T20:40:18.380Z,100650.66
2023-04-10T20:42:44.822Z,100631.19
2023-04-10T20:45:11.814Z,100640.72
2023-04-10T20:47:38.356Z,100645.97
2023-04-10T20:50:05.329Z,100651.50
2023-04-10T20:52:31.794Z,100662.97
2023-04-10T20:54:58.225Z,100670.53
2023-04-10T20:57:24.812Z,100655.09
2023-04-10T20:59:51.272Z,100674.94
2023-04-10T21:02:18.061Z,100677.41
2023-04-10T21:04:44.684Z,100659.56
2023-04-10T21:07:11.156Z,100638.66
2023-04-10T21:09:37.613Z,100635.53
2023-04-10T21:12:04.242Z,100635.59
2023-04-10T21:14:30.723Z,100624.50
2023-04-10T21:16:57.285Z,100617.00
2023-04-10T21:19:23.830Z,100621.38
2023-04-10T21:21:50.282Z,100581.75
2023-04-10T21:24:16.742Z,100565.97
2023-04-10T21:26:43.193Z,100575.50
2023-04-10T21:29:09.699Z,100583.47
2023-04-10T21:31:36.177Z,100590.56
2023-04-10T21:34:02.664Z,100572.72
2023-04-10T21:36:29.234Z,100575.94
2023-04-10T21:38:55.959Z,100570.44
2023-04-10T21:41:22.613Z,100552.97
2023-04-10T21:43:49.328Z,100553.78
2023-04-10T21:46:16.003Z,100520.94
2023-04-10T21:48:42.549Z,100524.59
2023-04-10T21:51:12.545Z,100522.56
2023-04-10T21:53:39.057Z,100517.00
2023-04-10T21:56:05.934Z,100549.41
2023-04-10T21:58:32.424Z,100559.78
2023-04-10T22:00:58.953Z,100541.56
2023-04-10T22:03:27.113Z,100523.41
2023-04-10T22:05:53.796Z,100511.50
2023-04-10T22:08:20.391Z,100537.63
2023-04-10T22:10:48.055Z,100547.94
2023-04-10T22:13:27.356Z,100555.09
2023-04-10T22:15:56.616Z,100570.50
2023-04-10T22:18:23.108Z,100575.63
2023-04-10T22:20:49.567Z,100579.22
2023-04-10T22:23:16.026Z,100579.25
2023-04-10T22:25:42.498Z,100577.25
2023-04-10T22:28:08.981Z,100570.53
2023-04-10T22:30:35.587Z,100564.56
2023-04-10T22:33:02.177Z,100568.94
2023-04-10T22:35:28.967Z,100559.47
2023-04-10T22:37:56.924Z,100563.41
2023-04-10T22:40:23.525Z,100555.16
2023-04-10T22:42:50.565Z,100554.75
2023-04-10T22:45:17.132Z,100542.47
2023-04-10T22:47:43.597Z,100536.53
2023-04-10T22:50:10.332Z,100516.78
2023-04-10T22:52:37.199Z,100509.28
2023-04-10T22:55:07.913Z,100485.63
2023-04-10T22:57:34.483Z,100478.06
2023-04-10T23:00:01.077Z,100484.41
2023-04-10T23:02:27.788Z,100486.44
2023-04-10T23:04:54.559Z,100491.59
2023-04-10T23:07:21.035Z,100494.72
2023-04-10T23:09:47.497Z,100486.44
2023-04-10T23:12:13.996Z,100500.72
2023-04-10T23:14:40.507Z,100501.06
2023-04-10T23:17:07.041Z,100493.13
2023-04-10T23:19:33.515Z,100504.28
2023-04-10T23:21:59.967Z,100503.47
2023-04-10T23:24:26.400Z,100507.78
2023-04-10T23:26:53.151Z,100501.06
2023-04-10T23:29:19.661Z,100500.63
2023-04-10T23:31:46.275Z,100508.53
2023-04-10T23:34:12.818Z,100510.09
2023-04-10T23:36:39.344Z,100511.69
2023-04-10T23:39:05.776Z,100518.00
2023-04-10T23:41:33.085Z,100506.88
2023-04-10T23:43:59.650Z,100507.72
2023-04-10T23:46:26.115Z,100508.91
2023-04-10T23:48:54.509Z,100519.94
2023-04-10T23:51:21.188Z,100512.44
2023-04-10T23:53:47.725Z,100514.06
2023-04-10T23:56:14.252Z,100512.00
2023-04-10T23:58:40.762Z,100501.72
